createdAt,value
2023-01-30T00:01:43.243Z,-128.00
2023-01-30T00:04:13.267Z,-128.00
2023-01-30T00:06:43.636Z,-128.00
2023-01-30T00:09:14.555Z,-128.00
2023-01-30T00:11:43.732Z,-128.00
2023-01-30T00:14:14.528Z,-128.00
2023-01-30T00:16:43.043Z,-128.00
2023-01-30T00:23:00.843Z,-128.00
2023-01-30T00:28:41.753Z,-128.00
2023-01-30T00:31:12.088Z,-128.00
2023-01-30T00:33:40.160Z,-128.00
2023-01-30T00:36:09.510Z,-128.00
2023-01-30T00:38:39.456Z,-128.00
2023-01-30T00:41:08.309Z,-128.00
2023-01-30T00:43:55.807Z,-128.00
2023-01-30T00:46:51.097Z,-128.00
2023-01-30T00:49:20.436Z,-128.00
2023-01-30T00:51:49.483Z,-128.00
2023-01-30T00:54:17.383Z,-128.00
2023-01-30T00:56:45.729Z,-128.00
2023-01-30T00:59:14.260Z,-128.00
2023-01-30T01:01:42.755Z,-128.00
2023-01-30T01:04:10.964Z,-128.00
2023-01-30T01:06:44.729Z,-128.00
2023-01-30T01:09:13.626Z,-128.00
2023-01-30T01:11:41.907Z,-128.00
2023-01-30T01:14:09.891Z,-128.00
2023-01-30T01:16:38.333Z,-128.00
2023-01-30T01:19:07.112Z,-128.00
2023-01-30T01:21:35.881Z,-128.00
2023-01-30T01:24:06.634Z,-128.00
2023-01-30T01:26:35.492Z,-128.00
2023-01-30T01:29:04.115Z,-128.00
2023-01-30T01:31:33.230Z,-128.00
2023-01-30T01:34:01.205Z,-128.00
2023-01-30T01:40:18.700Z,-128.00
2023-01-30T01:43:20.750Z,-128.00
2023-01-30T01:45:51.696Z,-128.00
2023-01-30T01:53:31.359Z,-128.00
2023-01-30T01:55:59.593Z,-128.00
2023-01-30T02:02:13.420Z,-128.00
2023-01-30T02:05:04.381Z,-128.00
2023-01-30T02:07:35.517Z,-128.00
2023-01-30T02:10:05.023Z,-128.00
2023-01-30T02:12:34.359Z,-128.00
2023-01-30T02:15:02.694Z,-128.00
2023-01-30T02:17:31.813Z,-128.00
2023-01-30T02:20:25.703Z,-128.00
2023-01-30T02:23:15.037Z,-128.00
2023-01-30T02:26:34.345Z,-128.00
2023-01-30T02:29:26.604Z,-128.00
2023-01-30T02:32:00.828Z,-128.00
2023-01-30T02:34:39.865Z,-128.00
2023-01-30T02:37:24.561Z,-128.00
2023-01-30T02:39:54.001Z,-128.00
2023-01-30T02:42:25.342Z,-128.00
2023-01-30T02:45:05.455Z,-128.00
2023-01-30T02:47:40.256Z,-128.00
2023-01-30T02:50:19.298Z,-128.00
2023-01-30T02:52:47.976Z,-128.00
2023-01-30T02:55:20.599Z,-128.00
2023-01-30T02:57:48.564Z,-128.00
2023-01-30T03:00:20.450Z,-128.00
2023-01-30T03:03:07.115Z,-128.00
2023-01-30T03:05:40.029Z,-128.00
2023-01-30T03:08:13.164Z,-128.00
2023-01-30T03:10:57.175Z,-128.00
2023-01-30T03:14:06.935Z,-128.00
2023-01-30T03:16:38.969Z,-128.00
2023-01-30T03:19:11.276Z,-128.00
2023-01-30T03:21:44.457Z,-128.00
2023-01-30T03:24:13.613Z,-128.00
2023-01-30T03:27:09.106Z,-128.00
2023-01-30T03:29:39.175Z,-128.00
2023-01-30T03:32:06.984Z,-128.00
2023-01-30T03:34:34.931Z,-128.00
2023-01-30T03:37:03.601Z,-128.00
2023-01-30T03:39:36.026Z,-128.00
2023-01-30T03:42:04.542Z,-128.00
2023-01-30T03:44:32.942Z,-128.00
2023-01-30T03:47:01.499Z,-128.00
2023-01-30T03:49:30.025Z,-128.00
2023-01-30T03:51:58.075Z,-128.00
2023-01-30T03:54:26.417Z,-128.00
2023-01-30T03:56:55.223Z,-128.00
2023-01-30T03:59:24.236Z,-128.00
2023-01-30T04:01:58.132Z,-128.00
2023-01-30T04:04:26.021Z,-128.00
2023-01-30T04:06:55.805Z,-128.00
2023-01-30T04:09:24.486Z,-128.00
2023-01-30T04:11:53.091Z,-128.00
2023-01-30T04:14:20.850Z,-128.00
2023-01-30T04:17:09.747Z,-128.00
2023-01-30T04:20:07.329Z,-128.00
2023-01-30T04:22:36.226Z,-128.00
2023-01-30T04:25:05.034Z,-128.00
2023-01-30T04:27:33.620Z,-128.00
2023-01-30T04:30:13.631Z,-128.00
2023-01-30T04:32:44.977Z,-128.00
2023-01-30T04:35:12.867Z,-128.00
2023-01-30T04:37:41.018Z,-128.00
2023-01-30T04:40:11.925Z,-128.00
2023-01-30T04:42:40.456Z,-128.00
2023-01-30T04:45:28.322Z,-128.00
2023-01-30T04:47:59.706Z,-128.00
2023-01-30T04:50:28.178Z,-128.00
2023-01-30T04:52:56.358Z,-128.00
2023-01-30T04:55:25.106Z,-128.00
2023-01-30T04:57:54.239Z,-128.00
2023-01-30T05:00:24.466Z,-128.00
2023-01-30T05:02:56.599Z,-128.00
2023-01-30T05:05:25.536Z,-128.00
2023-01-30T05:07:54.262Z,-128.00
2023-01-30T05:10:22.512Z,-128.00
2023-01-30T05:12:51.275Z,-128.00
2023-01-30T05:15:20.907Z,-128.00
2023-01-30T05:17:50.008Z,-128.00
2023-01-30T05:20:18.353Z,-128.00
2023-01-30T05:22:48.162Z,-128.00
2023-01-30T05:25:17.554Z,-128.00
2023-01-30T05:27:45.944Z,-128.00
2023-01-30T05:30:14.601Z,-128.00
2023-01-30T05:32:43.251Z,-128.00
2023-01-30T05:35:14.607Z,-128.00
2023-01-30T05:37:42.909Z,-128.00
2023-01-30T05:40:12.791Z,-128.00
2023-01-30T05:42:40.721Z,-128.00
2023-01-30T05:45:10.835Z,-128.00
2023-01-30T05:47:39.223Z,-128.00
2023-01-30T05:50:07.943Z,-128.00
2023-01-30T05:52:35.806Z,-128.00
2023-01-30T05:55:03.803Z,-128.00
2023-01-30T05:57:31.861Z,-128.00
2023-01-30T05:59:59.971Z,-128.00
2023-01-30T06:02:27.726Z,-128.00
2023-01-30T06:04:56.830Z,-128.00
2023-01-30T06:07:24.973Z,-128.00
2023-01-30T06:09:53.207Z,-128.00
2023-01-30T06:12:21.557Z,-128.00
2023-01-30T06:14:49.751Z,-128.00
2023-01-30T06:17:18.053Z,-128.00
2023-01-30T06:19:46.501Z,-128.00
2023-01-30T06:22:15.086Z,-128.00
2023-01-30T06:24:43.075Z,-128.00
2023-01-30T06:27:10.815Z,-128.00
2023-01-30T06:29:39.206Z,-128.00
2023-01-30T06:32:07.246Z,-128.00
2023-01-30T06:34:35.359Z,-128.00
2023-01-30T06:37:03.554Z,-128.00
2023-01-30T06:39:32.176Z,-128.00
2023-01-30T06:42:00.224Z,-128.00
2023-01-30T06:44:28.451Z,-128.00
2023-01-30T06:46:56.802Z,-128.00
2023-01-30T06:49:25.604Z,-128.00
2023-01-30T06:51:54.013Z,-128.00
2023-01-30T06:54:23.780Z,-128.00
2023-01-30T06:56:53.149Z,-128.00
2023-01-30T06:59:21.383Z,-128.00
2023-01-30T07:01:50.877Z,-128.00
2023-01-30T07:04:20.112Z,-128.00
2023-01-30T07:06:50.261Z,-128.00
2023-01-30T07:09:20.105Z,-128.00
2023-01-30T07:11:50.909Z,-128.00
2023-01-30T07:14:20.090Z,-128.00
2023-01-30T07:16:48.770Z,-128.00
2023-01-30T07:19:19.557Z,-128.00
2023-01-30T07:21:48.305Z,-128.00
2023-01-30T07:24:16.996Z,-128.00
2023-01-30T07:26:48.035Z,-128.00
2023-01-30T07:29:16.147Z,-128.00
2023-01-30T07:31:44.435Z,-128.00
2023-01-30T07:34:13.517Z,-128.00
2023-01-30T07:36:41.972Z,-128.00
2023-01-30T07:39:10.376Z,-128.00
2023-01-30T07:41:39.193Z,-128.00
2023-01-30T07:44:12.869Z,-128.00
2023-01-30T07:46:41.281Z,-128.00
2023-01-30T07:49:10.162Z,-128.00
2023-01-30T07:51:39.671Z,-128.00
2023-01-30T07:54:08.001Z,-128.00
2023-01-30T07:56:37.506Z,-128.00
2023-01-30T07:59:05.741Z,-128.00
2023-01-30T08:01:33.870Z,-128.00
2023-01-30T08:04:02.037Z,-128.00
2023-01-30T08:06:30.736Z,-128.00
2023-01-30T08:08:58.545Z,-128.00
2023-01-30T08:11:29.593Z,-128.00
2023-01-30T08:13:58.116Z,-128.00
2023-01-30T08:16:26.818Z,-128.00
2023-01-30T08:18:55.530Z,-128.00
2023-01-30T08:21:24.291Z,-128.00
2023-01-30T08:23:52.294Z,-128.00
2023-01-30T08:26:20.586Z,-128.00
2023-01-30T08:28:48.895Z,-128.00
2023-01-30T08:31:17.182Z,-128.00
2023-01-30T08:33:45.301Z,-128.00
2023-01-30T08:36:14.222Z,-128.00
2023-01-30T08:38:42.390Z,-128.00
2023-01-30T08:41:10.239Z,-128.00
2023-01-30T08:43:38.519Z,-128.00
2023-01-30T08:46:07.084Z,-128.00
2023-01-30T08:48:49.101Z,-128.00
2023-01-30T08:51:18.943Z,-128.00
2023-01-30T08:53:47.179Z,-128.00
2023-01-30T08:56:15.746Z,-128.00
2023-01-30T08:58:46.541Z,-128.00
2023-01-30T09:01:15.034Z,-128.00
2023-01-30T09:03:43.595Z,-128.00
2023-01-30T09:06:13.974Z,-128.00
2023-01-30T09:08:42.834Z,-128.00
2023-01-30T09:11:14.493Z,-128.00
2023-01-30T09:13:44.546Z,-128.00
2023-01-30T09:16:12.721Z,-128.00
2023-01-30T09:18:42.183Z,-128.00
2023-01-30T09:21:13.562Z,-128.00
2023-01-30T09:23:41.904Z,-128.00
2023-01-30T09:26:10.385Z,-128.00
2023-01-30T09:28:38.941Z,-128.00
2023-01-30T09:31:07.300Z,-128.00
2023-01-30T09:33:36.543Z,-128.00
2023-01-30T09:36:05.489Z,-128.00
2023-01-30T09:38:33.817Z,-128.00
2023-01-30T09:41:28.544Z,-128.00
2023-01-30T09:44:21.301Z,-128.00
2023-01-30T09:47:11.671Z,-128.00
2023-01-30T09:49:58.844Z,-128.00
2023-01-30T09:52:35.576Z,-128.00
2023-01-30T09:55:16.125Z,-128.00
2023-01-30T09:57:44.154Z,-128.00
2023-01-30T10:00:17.345Z,-128.00
2023-01-30T10:02:45.481Z,-128.00
2023-01-30T10:34:07.573Z,-1.09
2023-01-30T10:36:48.091Z,-0.98
2023-01-30T10:39:38.746Z,-0.99
2023-01-30T10:42:38.904Z,-1.00
2023-01-30T10:45:17.180Z,-1.00
2023-01-30T10:47:53.093Z,-0.96
2023-01-30T10:50:49.676Z,-0.94
2023-01-30T10:53:48.325Z,-0.96
2023-01-30T10:56:43.546Z,-0.96
2023-01-30T10:59:31.445Z,-0.96
2023-01-30T11:02:07.280Z,-0.96
2023-01-30T11:05:05.929Z,-0.99
2023-01-30T11:07:37.580Z,-0.94
2023-01-30T11:10:17.467Z,-0.93
2023-01-30T11:12:47.352Z,-0.93
2023-01-30T11:15:18.618Z,-0.94
2023-01-30T11:17:48.871Z,-0.97
2023-01-30T11:20:20.777Z,-0.97
2023-01-30T11:23:06.015Z,-0.99
2023-01-30T11:26:10.381Z,-1.04
2023-01-30T11:28:42.988Z,-1.06
2023-01-30T11:31:40.283Z,-1.04
2023-01-30T11:34:17.754Z,-1.03
2023-01-30T11:36:49.040Z,-1.01
2023-01-30T11:39:23.754Z,-1.00
2023-01-30T11:41:56.437Z,-0.95
2023-01-30T11:44:29.864Z,-0.93
2023-01-30T11:47:01.425Z,-0.88
2023-01-30T11:49:47.265Z,-0.84
2023-01-30T11:52:31.276Z,-0.80
2023-01-30T11:55:06.960Z,-0.77
2023-01-30T11:57:53.605Z,-0.76
2023-01-30T12:00:26.101Z,-0.74
2023-01-30T12:02:56.168Z,-0.68
2023-01-30T12:05:37.568Z,-0.67
2023-01-30T12:08:40.764Z,-0.62
2023-01-30T12:11:33.730Z,-0.58
2023-01-30T12:14:25.064Z,-0.58
2023-01-30T12:17:22.545Z,-0.56
2023-01-30T12:20:01.748Z,-0.56
2023-01-30T12:22:43.959Z,-0.56
2023-01-30T12:25:16.557Z,-0.55
2023-01-30T12:28:12.652Z,-0.55
2023-01-30T12:30:57.065Z,-0.57
2023-01-30T12:33:31.738Z,-0.56
2023-01-30T12:36:14.703Z,-0.55
2023-01-30T12:38:51.715Z,-0.53
2023-01-30T12:41:32.062Z,-0.54
2023-01-30T12:44:31.135Z,-0.57
2023-01-30T12:47:08.357Z,-0.61
2023-01-30T12:49:50.856Z,-0.60
2023-01-30T12:52:36.825Z,-0.57
2023-01-30T12:55:23.671Z,-0.58
2023-01-30T12:58:07.725Z,-0.61
2023-01-30T13:01:13.181Z,-0.62
2023-01-30T13:04:16.705Z,-0.60
2023-01-30T13:06:55.564Z,-0.58
2023-01-30T13:09:47.214Z,-0.59
2023-01-30T13:12:31.062Z,-0.57
2023-01-30T13:15:13.570Z,-0.55
2023-01-30T13:17:50.649Z,-0.54
2023-01-30T13:20:42.362Z,-0.51
2023-01-30T13:23:19.165Z,-0.49
2023-01-30T13:26:16.010Z,-0.46
2023-01-30T13:28:51.033Z,-0.44
2023-01-30T13:31:22.960Z,-0.43
2023-01-30T13:34:06.385Z,-0.43
2023-01-30T13:36:52.434Z,-0.42
2023-01-30T13:39:28.637Z,-0.42
2023-01-30T13:42:01.992Z,-0.43
2023-01-30T13:44:33.653Z,-0.44
2023-01-30T13:47:21.211Z,-0.45
2023-01-30T13:50:20.982Z,-0.45
2023-01-30T13:53:04.711Z,-0.43
2023-01-30T13:55:56.989Z,-0.41
2023-01-30T13:58:46.390Z,-0.41
2023-01-30T14:01:16.933Z,-0.40
2023-01-30T14:03:47.374Z,-0.39
2023-01-30T14:06:39.861Z,-0.40
2023-01-30T14:09:20.449Z,-0.39
2023-01-30T14:12:02.162Z,-0.37
2023-01-30T14:14:41.550Z,-0.37
2023-01-30T14:17:21.393Z,-0.37
2023-01-30T14:20:02.242Z,-0.36
2023-01-30T14:22:52.903Z,-0.37
2023-01-30T14:25:26.833Z,-0.37
2023-01-30T14:28:01.175Z,-0.37
2023-01-30T14:30:53.835Z,-0.40
2023-01-30T14:33:24.616Z,-0.43
2023-01-30T14:36:03.177Z,-0.44
2023-01-30T14:38:37.678Z,-0.44
2023-01-30T14:41:08.800Z,-0.47
2023-01-30T14:43:42.438Z,-0.49
2023-01-30T14:46:18.322Z,-0.50
2023-01-30T14:48:53.707Z,-0.50
2023-01-30T14:51:29.617Z,-0.50
2023-01-30T14:54:03.588Z,-0.51
2023-01-30T14:56:59.286Z,-0.53
2023-01-30T14:59:42.188Z,-0.53
2023-01-30T15:02:15.267Z,-0.56
2023-01-30T15:04:57.227Z,-0.58
2023-01-30T15:07:29.707Z,-0.60
2023-01-30T15:10:01.510Z,-0.59
2023-01-30T15:12:40.849Z,-0.61
2023-01-30T15:15:36.556Z,-0.67
2023-01-30T15:18:08.552Z,-0.69
2023-01-30T15:20:54.331Z,-0.71
2023-01-30T15:23:25.340Z,-0.73
2023-01-30T15:25:56.623Z,-0.73
2023-01-30T15:28:35.052Z,-0.74
2023-01-30T15:31:19.109Z,-0.73
2023-01-30T15:33:51.871Z,-0.73
2023-01-30T15:36:32.323Z,-0.73
2023-01-30T15:39:29.021Z,-0.73
2023-01-30T15:42:05.750Z,-0.72
2023-01-30T15:44:42.707Z,-0.73
2023-01-30T15:47:15.988Z,-0.73
2023-01-30T15:49:56.485Z,-0.73
2023-01-30T15:52:29.752Z,-0.73
2023-01-30T15:55:00.676Z,-0.72
2023-01-30T15:57:34.041Z,-0.71
2023-01-30T16:00:05.552Z,-0.72
2023-01-30T16:02:43.790Z,-0.72
2023-01-30T16:05:25.437Z,-0.73
2023-01-30T16:07:59.930Z,-0.71
2023-01-30T16:10:32.338Z,-0.71
2023-01-30T16:13:03.731Z,-0.71
2023-01-30T16:15:36.481Z,-0.71
2023-01-30T16:18:27.176Z,-0.71
2023-01-30T16:21:07.687Z,-0.72
2023-01-30T16:23:56.387Z,-0.72
2023-01-30T16:26:29.125Z,-0.74
2023-01-30T16:29:02.999Z,-0.74
2023-01-30T16:31:33.919Z,-0.72
2023-01-30T16:34:04.251Z,-0.70
2023-01-30T16:36:42.125Z,-0.69
2023-01-30T16:39:31.513Z,-0.69
2023-01-30T16:42:03.096Z,-0.65
2023-01-30T16:44:33.674Z,-0.60
2023-01-30T16:47:05.393Z,-0.57
2023-01-30T16:49:37.485Z,-0.55
2023-01-30T16:52:24.296Z,-0.53
2023-01-30T16:54:58.047Z,-0.52
2023-01-30T16:57:35.833Z,-0.53
2023-01-30T17:00:11.392Z,-0.54
2023-01-30T17:02:42.420Z,-0.54
2023-01-30T17:05:34.830Z,-0.53
2023-01-30T17:08:05.577Z,-0.51
2023-01-30T17:10:43.319Z,-0.50
2023-01-30T17:13:37.397Z,-0.51
2023-01-30T17:16:24.097Z,-0.51
2023-01-30T17:18:59.716Z,-0.52
2023-01-30T17:21:45.594Z,-0.52
2023-01-30T17:24:18.102Z,-0.55
2023-01-30T17:26:50.519Z,-0.56
2023-01-30T17:29:28.964Z,-0.56
2023-01-30T17:32:06.736Z,-0.57
2023-01-30T17:34:42.011Z,-0.58
2023-01-30T17:37:17.483Z,-0.58
2023-01-30T17:39:49.590Z,-0.58
2023-01-30T17:42:23.170Z,-0.59
2023-01-30T17:44:56.117Z,-0.64
2023-01-30T17:47:28.540Z,-0.67
2023-01-30T17:50:01.421Z,-0.72
2023-01-30T17:52:31.651Z,-0.76
2023-01-30T17:55:05.513Z,-0.82
2023-01-30T17:57:36.175Z,-0.90
2023-01-30T18:00:09.085Z,-0.95
2023-01-30T18:02:38.865Z,-0.98
2023-01-30T18:05:11.421Z,-1.00
2023-01-30T18:07:46.225Z,-1.03
2023-01-30T18:10:21.490Z,-1.06
2023-01-30T18:12:52.151Z,-1.07
2023-01-30T18:15:22.985Z,-1.05
2023-01-30T18:17:57.971Z,-1.06
2023-01-30T18:20:38.456Z,-1.08
2023-01-30T18:23:09.791Z,-1.09
2023-01-30T18:25:40.420Z,-1.10
2023-01-30T18:28:14.620Z,-1.10
2023-01-30T18:30:46.856Z,-1.11
2023-01-30T18:33:16.955Z,-1.13
2023-01-30T18:35:48.233Z,-1.17
2023-01-30T18:38:19.206Z,-1.19
2023-01-30T18:40:49.745Z,-1.21
2023-01-30T18:43:21.396Z,-1.22
2023-01-30T18:46:01.958Z,-1.22
2023-01-30T18:48:32.707Z,-1.23
2023-01-30T18:51:07.362Z,-1.23
2023-01-30T18:53:37.844Z,-1.23
2023-01-30T18:56:08.834Z,-1.23
2023-01-30T18:58:38.922Z,-1.22
2023-01-30T19:01:12.839Z,-1.23
2023-01-30T19:03:43.650Z,-1.24
2023-01-30T19:06:15.233Z,-1.23
2023-01-30T19:08:45.982Z,-1.22
2023-01-30T19:11:37.444Z,-1.23
2023-01-30T19:14:09.390Z,-1.24
2023-01-30T19:16:43.339Z,-1.23
2023-01-30T19:19:13.738Z,-1.25
2023-01-30T19:21:43.417Z,-1.26
2023-01-30T19:24:15.004Z,-1.26
2023-01-30T19:26:45.258Z,-1.26
2023-01-30T19:29:16.981Z,-1.26
2023-01-30T19:31:51.138Z,-1.27
2023-01-30T19:34:22.275Z,-1.26
2023-01-30T19:36:52.974Z,-1.25
2023-01-30T19:39:23.686Z,-1.24
2023-01-30T19:41:54.123Z,-1.26
2023-01-30T19:44:24.225Z,-1.24
2023-01-30T19:46:56.900Z,-1.21
2023-01-30T19:49:27.737Z,-1.18
2023-01-30T19:52:02.770Z,-1.17
2023-01-30T19:54:34.816Z,-1.17
2023-01-30T19:57:04.983Z,-1.16
2023-01-30T19:59:39.517Z,-1.18
2023-01-30T20:02:10.316Z,-1.20
2023-01-30T20:04:41.422Z,-1.24
2023-01-30T20:07:11.717Z,-1.24
2023-01-30T20:09:41.811Z,-1.24
2023-01-30T20:12:12.249Z,-1.23
2023-01-30T20:14:42.915Z,-1.24
2023-01-30T20:17:15.203Z,-1.23
2023-01-30T20:19:45.594Z,-1.25
2023-01-30T20:22:15.745Z,-1.28
2023-01-30T20:24:46.855Z,-1.28
2023-01-30T20:27:17.649Z,-1.29
2023-01-30T20:29:48.590Z,-1.29
2023-01-30T20:32:19.125Z,-1.30
2023-01-30T20:34:49.906Z,-1.30
2023-01-30T20:37:20.256Z,-1.31
2023-01-30T20:39:51.963Z,-1.29
2023-01-30T20:42:22.812Z,-1.28
2023-01-30T20:44:52.963Z,-1.31
2023-01-30T20:47:22.662Z,-1.36
2023-01-30T20:49:52.786Z,-1.39
2023-01-30T20:52:23.581Z,-1.41
2023-01-30T20:54:55.605Z,-1.43
2023-01-30T20:57:26.677Z,-1.42
2023-01-30T20:59:56.300Z,-1.41
2023-01-30T21:02:26.039Z,-1.36
2023-01-30T21:04:55.827Z,-1.30
2023-01-30T21:07:25.562Z,-1.24
2023-01-30T21:09:55.071Z,-1.19
2023-01-30T21:12:26.045Z,-1.16
2023-01-30T21:14:55.996Z,-1.11
2023-01-30T21:17:26.099Z,-1.07
2023-01-30T21:19:56.354Z,-1.03
2023-01-30T21:22:26.201Z,-1.02
2023-01-30T21:24:56.366Z,-1.01
2023-01-30T21:27:26.884Z,-1.00
2023-01-30T21:29:56.734Z,-1.00
2023-01-30T21:32:26.429Z,-0.99
2023-01-30T21:34:56.075Z,-1.00
2023-01-30T21:37:44.821Z,-1.03
2023-01-30T21:40:33.438Z,-1.03
2023-01-30T21:43:15.520Z,-1.04
2023-01-30T21:45:45.353Z,-1.02
2023-01-30T21:48:14.986Z,-0.97
2023-01-30T21:50:45.131Z,-0.94
2023-01-30T21:53:14.679Z,-0.92
2023-01-30T21:55:44.279Z,-0.93
2023-01-30T21:58:13.858Z,-0.96
2023-01-30T22:00:43.441Z,-1.01
2023-01-30T22:03:13.492Z,-1.04
2023-01-30T22:05:44.271Z,-1.07
2023-01-30T22:08:13.874Z,-1.09
2023-01-30T22:10:43.460Z,-1.10
2023-01-30T22:13:13.745Z,-1.11
2023-01-30T22:15:44.042Z,-1.10
2023-01-30T22:18:15.050Z,-1.08
2023-01-30T22:20:45.272Z,-1.04
2023-01-30T22:23:14.606Z,-1.00
2023-01-30T22:25:44.753Z,-0.98
2023-01-30T22:28:14.263Z,-0.97
2023-01-30T22:30:43.684Z,-0.96
2023-01-30T22:33:13.167Z,-0.98
2023-01-30T22:35:48.856Z,-1.00
2023-01-30T22:38:18.275Z,-1.00
2023-01-30T22:40:47.643Z,-1.02
2023-01-30T22:43:16.912Z,-1.04
2023-01-30T22:45:46.273Z,-1.07
2023-01-30T22:48:17.165Z,-1.07
2023-01-30T22:50:46.738Z,-1.04
2023-01-30T22:53:15.930Z,-1.01
2023-01-30T22:55:45.152Z,-0.96
2023-01-30T22:58:14.151Z,-0.93
2023-01-30T23:00:43.961Z,-0.89
2023-01-30T23:03:12.985Z,-0.87
2023-01-30T23:05:42.218Z,-0.85
2023-01-30T23:08:11.939Z,-0.82
2023-01-30T23:10:41.128Z,-0.80
2023-01-30T23:13:15.647Z,-0.79
2023-01-30T23:15:47.160Z,-0.78
2023-01-30T23:18:34.846Z,-0.77
2023-01-30T23:21:04.375Z,-0.70
2023-01-30T23:23:33.893Z,-0.68
2023-01-30T23:26:06.222Z,-0.69
2023-01-30T23:28:35.462Z,-0.70
2023-01-30T23:31:12.034Z,-0.73
2023-01-30T23:33:41.291Z,-0.79
2023-01-30T23:36:11.512Z,-0.81
2023-01-30T23:38:40.817Z,-0.80
2023-01-30T23:41:13.714Z,-0.79
2023-01-30T23:43:43.355Z,-0.79
2023-01-30T23:46:16.654Z,-0.78
2023-01-30T23:48:46.262Z,-0.75
2023-01-30T23:51:15.967Z,-0.71
2023-01-30T23:53:45.068Z,-0.68
2023-01-30T23:56:15.006Z,-0.70
2023-01-30T23:58:44.612Z,-0.74
